createdAt,value
2022-12-12T13:05:18.972Z,7.47
2022-12-12T13:15:44.816Z,11.63
2022-12-12T13:26:43.468Z,6.57
2022-12-12T13:36:59.444Z,5.97
2022-12-12T13:47:23.739Z,8.27
2022-12-12T13:57:57.287Z,4.90
2022-12-12T14:08:13.583Z,7.18
2022-12-12T14:18:35.574Z,4.77
2022-12-12T14:29:15.928Z,6.47
2022-12-12T14:39:52.980Z,4.40
2022-12-12T14:50:10.915Z,3.65
2022-12-12T15:00:27.944Z,8.85
2022-12-12T15:10:43.087Z,5.90
2022-12-12T15:20:58.520Z,7.10
2022-12-12T15:31:19.001Z,3.95
2022-12-12T15:41:34.474Z,8.65
2022-12-12T15:51:49.888Z,6.35
2022-12-12T16:02:30.847Z,9.30
2022-12-12T16:13:01.811Z,5.57
2022-12-12T16:23:27.046Z,6.82
2022-12-12T16:33:42.821Z,6.57
2022-12-12T16:43:57.759Z,19.80
2022-12-12T16:54:16.761Z,18.30
2022-12-12T17:04:32.132Z,20.50
2022-12-12T17:14:47.472Z,26.05
2022-12-12T17:25:02.927Z,31.73
2022-12-12T17:35:18.204Z,21.55
2022-12-12T17:45:33.647Z,17.75
2022-12-12T17:55:51.916Z,16.80
2022-12-12T18:06:11.964Z,48.15
2022-12-12T18:16:29.432Z,31.45
2022-12-12T18:26:44.933Z,29.80
2022-12-12T18:37:00.337Z,19.98
2022-12-12T18:47:15.869Z,23.48
2022-12-12T18:57:31.269Z,20.55
2022-12-12T19:07:46.897Z,24.42
2022-12-12T19:18:02.390Z,19.20
2022-12-12T19:28:18.117Z,19.63
2022-12-12T19:38:33.378Z,18.92
2022-12-12T19:48:52.682Z,13.68
2022-12-12T19:59:08.250Z,17.60
2022-12-12T20:09:28.527Z,16.38
2022-12-12T20:19:45.995Z,12.10
2022-12-12T20:40:16.211Z,13.02
2022-12-12T20:50:31.920Z,12.13
2022-12-12T21:00:47.175Z,11.95
2022-12-12T21:11:02.638Z,11.82
2022-12-12T21:21:18.745Z,15.20
2022-12-12T21:31:37.538Z,14.52
2022-12-12T21:41:53.451Z,14.63
2022-12-12T21:52:09.986Z,13.27
2022-12-12T22:02:25.061Z,15.00
2022-12-12T22:12:40.470Z,8.80
2022-12-12T22:22:55.820Z,15.13
